Strona główna
METAR-TAF:

METAR-TAF

Lotnisko :

Port lotniczy Alderney

Alderney,

Szerokość geograficzna: 49-43N, Długość geograficzna: 002-12W, wysokość: 71 m

Aktualna obserwacja pogody

Raport powstał 39 minut temu, godzina 17:20 UTC
Wiatr 8 kt od północny zachód
Temperatura 16°C
Wilgotność 82%
Ciśnienie 1026 hPa
Widzialność 10 km lub więcej
Brak chmur poniżej 1500 m i brak chmur cumulonimbus

METAR: EGJA 121720Z 32008KT CAVOK 16/13 Q1026

czas: 18:59 (17:59 UTC)

Prognoza

Raport powstał 4 godziny i 0 minut temu, godzina 13:59 UTC
Prognoza ważna od 12 godzina 15 UTC do 13 godzina 00 UTC
Wiatr 6 kt od zachodnio-północny zachód
Widzialność 10 km lub więcej
Mało chmury na wysokości 1200 ft

TAF: EGJA 121359Z 1215/1300 30006KT 9999 FEW012

Obserwacja i prognoza pogody dla ponad 4000 lotnisk (raport METAR i TAF).

Dostępne stacje oznaczono żółtymi i czerwonymi punktami na mapie.

Najedź kursorem aby zobaczyć nazwę stacji.

Kliknij aby zobaczyć obserwacje i prognozy pogody.

Aby zmienić mapę: kliknij na zielony przycisk z czarnym krzyżykiem, aby powiększyć; na zielony przycisk z myślnikiem, aby pomniejszyć; na zielone strzałki, aby przejść do map sąsiednich.


METAR-TAF: